Time;durP1;ratioP1;P1;durP2;ratioP2;P2;SDS_P1;SDS_P2;PMS_P1;PMS_P2;Temp;Humidity;BMP_temperature;BMP_pressure;BME280_temperature;BME280_humidity;BME280_pressure;Samples;Min_cycle;Max_cycle;Signal;HPM_P1;HPM_P2
2022/10/20 00:00:12;;;;;;;11.50;8.25;;;6.30;99.90;;;;;;4975502;28;20076;-80
2022/10/20 00:02:38;;;;;;;9.90;8.48;;;6.30;99.90;;;;;;4974631;28;20041;-81
2022/10/20 00:05:04;;;;;;;10.18;7.60;;;6.30;99.90;;;;;;4990698;28;20051;-80
2022/10/20 00:07:29;;;;;;;10.27;8.02;;;6.30;99.90;;;;;;4989516;28;20041;-80
2022/10/20 00:09:55;;;;;;;12.40;8.32;;;6.40;99.90;;;;;;4973343;28;20400;-80
2022/10/20 00:12:21;;;;;;;11.77;7.53;;;6.40;99.90;;;;;;4973142;28;20097;-81
2022/10/20 00:14:47;;;;;;;14.57;8.57;;;6.40;99.90;;;;;;4990690;28;20125;-81
2022/10/20 00:17:12;;;;;;;11.48;7.65;;;6.40;99.90;;;;;;4990320;28;20052;-82
2022/10/20 00:19:38;;;;;;;8.27;7.18;;;6.40;99.90;;;;;;4986864;28;20031;-81
2022/10/20 00:22:04;;;;;;;12.43;8.20;;;6.40;99.90;;;;;;4993843;28;20065;-80
2022/10/20 00:24:30;;;;;;;10.18;7.38;;;6.40;99.90;;;;;;4973565;28;20046;-81
2022/10/20 00:26:55;;;;;;;10.15;7.90;;;6.40;99.90;;;;;;4987985;28;20046;-80
2022/10/20 00:29:21;;;;;;;10.38;7.93;;;6.40;99.90;;;;;;4992972;28;20040;-80
2022/10/20 00:31:47;;;;;;;12.35;8.23;;;6.30;99.90;;;;;;4995947;28;20113;-81
2022/10/20 00:34:13;;;;;;;9.90;7.55;;;6.30;99.90;;;;;;4977676;28;20042;-81
2022/10/20 00:36:39;;;;;;;11.35;7.78;;;6.30;99.90;;;;;;5007977;28;20061;-81
2022/10/20 00:39:05;;;;;;;10.00;7.95;;;6.30;99.90;;;;;;5002671;28;20031;-81
2022/10/20 00:41:32;;;;;;;14.10;8.15;;;6.30;99.90;;;;;;4999998;28;20030;-80
2022/10/20 00:44:00;;;;;;;12.60;8.10;;;6.30;99.90;;;;;;5013609;28;20041;-82
2022/10/20 00:46:37;;;;;;;11.18;7.85;;;6.30;99.90;;;;;;4986135;28;20030;-82
2022/10/20 00:49:20;;;;;;;10.90;7.88;;;6.30;99.90;;;;;;4991064;28;20048;-81
2022/10/20 00:51:47;;;;;;;12.13;8.90;;;6.30;99.90;;;;;;5003230;28;20402;-81
2022/10/20 00:54:18;;;;;;;8.90;7.80;;;6.30;99.90;;;;;;5009015;28;20034;-81
2022/10/20 00:56:46;;;;;;;9.60;7.75;;;6.30;99.90;;;;;;5005195;28;20097;-81
2022/10/20 00:59:16;;;;;;;11.00;7.35;;;6.30;99.90;;;;;;4961882;28;20138;-82
2022/10/20 01:01:42;;;;;;;10.35;7.38;;;6.30;99.90;;;;;;5003166;28;20026;-82
2022/10/20 01:04:09;;;;;;;11.40;7.68;;;6.30;99.90;;;;;;4971911;28;20438;-82
2022/10/20 01:06:35;;;;;;;10.82;8.00;;;6.30;99.90;;;;;;4982406;28;20210;-82
2022/10/20 01:09:01;;;;;;;13.90;8.02;;;6.30;99.90;;;;;;4991554;28;20044;-81
2022/10/20 01:11:56;;;;;;;11.93;8.15;;;6.30;99.90;;;;;;4975288;28;20034;-82
2022/10/20 01:14:40;;;;;;;10.88;7.07;;;6.30;99.90;;;;;;5005829;28;20659;-81
2022/10/20 01:17:43;;;;;;;11.32;8.40;;;6.30;99.90;;;;;;4964024;28;20113;-81
2022/10/20 01:20:12;;;;;;;10.05;7.93;;;6.30;99.90;;;;;;4977723;28;20507;-83
2022/10/20 01:23:07;;;;;;;10.95;8.07;;;6.30;99.90;;;;;;4987311;28;20516;-82
2022/10/20 01:26:11;;;;;;;13.32;8.68;;;6.30;99.90;;;;;;4988966;28;20062;-83
2022/10/20 01:28:42;;;;;;;14.68;7.90;;;6.30;99.90;;;;;;4969319;28;20030;-81
2022/10/20 01:31:25;;;;;;;12.43;8.20;;;6.30;99.90;;;;;;4979556;28;20107;-83
2022/10/20 01:34:07;;;;;;;14.63;8.65;;;6.30;99.90;;;;;;5007825;28;20040;-81
2022/10/20 01:36:42;;;;;;;12.20;8.35;;;6.30;99.90;;;;;;4988212;28;20037;-80
2022/10/20 01:39:39;;;;;;;8.80;7.68;;;6.30;99.90;;;;;;4997562;28;20085;-83
2022/10/20 01:42:14;;;;;;;9.73;7.22;;;6.30;99.90;;;;;;4995424;28;20031;-81
2022/10/20 01:44:42;;;;;;;10.93;7.88;;;6.30;99.90;;;;;;4988292;28;20022;-81
2022/10/20 01:47:10;;;;;;;12.13;8.43;;;6.20;99.90;;;;;;4972217;28;20042;-81
2022/10/20 01:49:36;;;;;;;9.70;7.53;;;6.10;99.90;;;;;;4991624;28;20486;-82
2022/10/20 01:52:03;;;;;;;13.13;7.72;;;6.10;99.90;;;;;;5003776;28;20748;-82
2022/10/20 01:54:29;;;;;;;13.23;8.45;;;6.10;99.90;;;;;;4972184;28;20535;-84
2022/10/20 01:57:12;;;;;;;11.32;8.13;;;6.10;99.90;;;;;;5002056;28;20060;-81
2022/10/20 01:59:43;;;;;;;12.57;8.60;;;6.10;99.90;;;;;;5024323;28;20568;-81
2022/10/20 02:02:41;;;;;;;10.43;8.00;;;6.10;99.90;;;;;;5006746;28;20052;-81
2022/10/20 02:05:10;;;;;;;12.20;9.25;;;6.10;99.90;;;;;;4921583;28;20046;-83
2022/10/20 02:07:36;;;;;;;13.68;8.63;;;6.10;99.90;;;;;;4985586;28;20035;-81
2022/10/20 02:10:13;;;;;;;10.60;8.20;;;6.10;99.90;;;;;;4971971;28;20069;-81
2022/10/20 02:12:43;;;;;;;11.38;8.40;;;6.00;99.90;;;;;;5002149;28;20530;-82
2022/10/20 02:15:13;;;;;;;10.93;8.25;;;6.10;99.90;;;;;;4967824;28;20034;-83
2022/10/20 02:17:40;;;;;;;10.30;8.18;;;6.10;99.90;;;;;;4987862;28;20112;-82
2022/10/20 02:20:09;;;;;;;10.82;8.20;;;6.10;99.90;;;;;;4984299;28;20042;-81
2022/10/20 02:22:34;;;;;;;13.48;8.43;;;6.20;99.90;;;;;;4974728;28;20037;-82
2022/10/20 02:25:00;;;;;;;14.25;7.43;;;6.20;99.90;;;;;;5007089;28;20509;-82
2022/10/20 02:27:34;;;;;;;10.13;8.27;;;6.10;99.90;;;;;;5023501;28;20033;-82
2022/10/20 02:30:10;;;;;;;11.13;7.32;;;6.10;99.90;;;;;;4968953;28;20644;-82
2022/10/20 02:32:38;;;;;;;13.13;7.80;;;6.10;99.90;;;;;;4974753;28;20503;-82
2022/10/20 02:35:08;;;;;;;9.38;7.95;;;6.10;99.90;;;;;;4995312;28;20033;-81
2022/10/20 02:37:34;;;;;;;11.13;8.32;;;6.10;99.90;;;;;;4983351;28;20072;-82
2022/10/20 02:40:00;;;;;;;10.75;8.52;;;6.10;99.90;;;;;;4987783;28;20066;-82
2022/10/20 02:42:25;;;;;;;12.00;8.00;;;6.10;99.90;;;;;;4987486;28;20447;-83
2022/10/20 02:44:52;;;;;;;11.00;7.55;;;6.10;99.90;;;;;;4971522;28;20065;-82
2022/10/20 02:47:19;;;;;;;12.93;8.10;;;6.10;99.90;;;;;;4971313;28;20088;-82
2022/10/20 02:49:45;;;;;;;11.35;7.88;;;6.10;99.90;;;;;;4968054;28;20093;-81
2022/10/20 02:52:11;;;;;;;10.82;7.88;;;6.00;99.90;;;;;;4983824;28;20036;-81
2022/10/20 02:54:37;;;;;;;12.43;8.30;;;6.00;99.90;;;;;;4971218;28;20050;-83
2022/10/20 02:57:03;;;;;;;12.55;7.53;;;5.90;99.90;;;;;;4984771;28;20037;-82
2022/10/20 02:59:29;;;;;;;11.15;7.75;;;5.90;99.90;;;;;;4971464;28;20037;-82
2022/10/20 03:01:55;;;;;;;17.30;8.18;;;5.90;99.90;;;;;;4933062;28;20122;-81
2022/10/20 03:04:21;;;;;;;11.65;8.95;;;6.00;99.90;;;;;;4959896;28;20079;-83
2022/10/20 03:06:46;;;;;;;9.27;7.72;;;6.00;99.90;;;;;;4972857;28;20034;-83
2022/10/20 03:09:12;;;;;;;12.85;7.93;;;6.00;99.90;;;;;;4987353;28;20045;-81
2022/10/20 03:11:38;;;;;;;14.55;7.82;;;6.00;99.90;;;;;;4983108;28;20108;-82
2022/10/20 03:14:04;;;;;;;11.05;7.72;;;6.00;99.90;;;;;;4976389;28;20495;-80
2022/10/20 03:16:30;;;;;;;15.68;8.35;;;6.00;99.90;;;;;;5004153;28;20121;-82
2022/10/20 03:18:55;;;;;;;11.75;7.72;;;6.00;99.90;;;;;;4987505;28;20668;-83
2022/10/20 03:21:21;;;;;;;11.38;8.48;;;6.00;99.90;;;;;;4962259;28;20031;-82
2022/10/20 03:23:47;;;;;;;10.40;7.55;;;5.90;99.90;;;;;;4988578;28;20089;-82
2022/10/20 03:26:14;;;;;;;10.70;7.95;;;6.00;99.90;;;;;;4999240;28;20069;-83
2022/10/20 03:28:39;;;;;;;9.82;7.28;;;6.00;99.90;;;;;;4977982;28;20054;-82
2022/10/20 03:31:06;;;;;;;11.30;7.93;;;6.00;99.90;;;;;;4998135;28;20059;-83
2022/10/20 03:33:32;;;;;;;13.73;7.05;;;6.00;99.90;;;;;;4978701;28;20539;-82
2022/10/20 03:35:57;;;;;;;9.57;6.97;;;6.00;99.90;;;;;;4990522;28;20041;-82
2022/10/20 03:38:23;;;;;;;8.73;7.38;;;6.00;99.90;;;;;;4992242;28;20058;-82
2022/10/20 03:40:50;;;;;;;14.05;7.68;;;5.90;99.90;;;;;;4995353;28;20026;-81
2022/10/20 03:43:16;;;;;;;12.02;7.20;;;5.90;99.90;;;;;;4987403;28;20030;-84
2022/10/20 03:45:42;;;;;;;8.45;6.35;;;6.00;99.90;;;;;;4974733;28;20065;-82
2022/10/20 03:48:10;;;;;;;9.02;6.68;;;5.90;99.90;;;;;;4991245;28;20705;-82
2022/10/20 03:50:40;;;;;;;10.50;7.68;;;5.90;99.90;;;;;;4962211;28;20111;-82
2022/10/20 03:53:06;;;;;;;18.05;9.50;;;5.90;99.90;;;;;;4971123;28;20051;-80
2022/10/20 03:55:32;;;;;;;9.85;7.43;;;5.80;99.90;;;;;;4980445;28;20110;-82
2022/10/20 03:57:58;;;;;;;13.88;7.65;;;5.80;99.90;;;;;;4978120;28;20113;-83
2022/10/20 04:00:24;;;;;;;9.48;7.10;;;5.80;99.90;;;;;;4995218;28;20733;-83
2022/10/20 04:02:50;;;;;;;9.50;7.13;;;5.80;99.90;;;;;;4968510;28;20045;-81
2022/10/20 04:05:18;;;;;;;11.25;7.30;;;5.80;99.90;;;;;;4974786;28;20038;-81
2022/10/20 04:07:44;;;;;;;11.80;6.80;;;5.80;99.90;;;;;;4993493;28;20037;-82
2022/10/20 04:10:11;;;;;;;9.80;7.22;;;5.80;99.90;;;;;;4976830;28;20069;-82
2022/10/20 04:12:36;;;;;;;10.57;6.95;;;5.80;99.90;;;;;;5009714;28;20037;-82
2022/10/20 04:15:04;;;;;;;13.15;7.10;;;5.80;99.90;;;;;;4986977;28;20027;-81
2022/10/20 04:17:30;;;;;;;10.60;6.78;;;5.80;99.90;;;;;;5025038;28;20063;-81
2022/10/20 04:19:56;;;;;;;10.40;7.30;;;5.70;99.90;;;;;;4993162;28;20065;-81
2022/10/20 04:22:21;;;;;;;11.43;7.43;;;5.80;99.90;;;;;;4989870;28;21110;-83
2022/10/20 04:24:47;;;;;;;14.52;7.53;;;5.70;99.90;;;;;;4973866;28;20570;-81
2022/10/20 04:27:13;;;;;;;10.75;6.80;;;5.70;99.90;;;;;;5008516;28;20046;-83
2022/10/20 04:29:39;;;;;;;10.88;7.32;;;5.70;99.90;;;;;;4964170;28;20038;-82
2022/10/20 04:32:05;;;;;;;13.75;7.18;;;5.70;99.90;;;;;;4980164;28;20046;-81
2022/10/20 04:34:30;;;;;;;9.70;7.47;;;5.70;99.90;;;;;;4990780;28;20088;-81
2022/10/20 04:36:56;;;;;;;12.07;8.05;;;5.80;99.90;;;;;;4989692;28;20065;-81
2022/10/20 04:39:24;;;;;;;13.30;7.00;;;5.70;99.90;;;;;;4993429;28;20023;-82
2022/10/20 04:41:50;;;;;;;13.25;7.53;;;5.70;99.90;;;;;;4997180;28;20030;-82
2022/10/20 04:44:16;;;;;;;12.32;8.00;;;5.80;99.90;;;;;;5025723;28;20037;-81
2022/10/20 04:46:42;;;;;;;11.25;7.72;;;5.70;99.90;;;;;;5007594;28;20064;-81
2022/10/20 04:49:07;;;;;;;11.88;7.47;;;5.80;99.90;;;;;;4994062;28;20380;-80
2022/10/20 04:51:33;;;;;;;11.35;7.72;;;5.70;99.90;;;;;;4987426;28;20026;-81
2022/10/20 04:53:59;;;;;;;11.95;7.70;;;5.70;99.90;;;;;;5004670;28;20594;-80
2022/10/20 04:56:25;;;;;;;13.20;7.20;;;5.70;99.90;;;;;;5015464;28;20026;-84
2022/10/20 04:58:53;;;;;;;10.60;7.43;;;5.80;99.90;;;;;;4962841;28;20054;-82
2022/10/20 05:01:20;;;;;;;9.25;7.55;;;5.80;99.90;;;;;;4998291;28;20030;-83
2022/10/20 05:03:46;;;;;;;10.30;7.38;;;5.70;99.90;;;;;;4958558;28;20042;-81
2022/10/20 05:06:17;;;;;;;10.07;6.88;;;5.70;99.90;;;;;;4981316;28;20034;-83
2022/10/20 05:08:45;;;;;;;11.20;7.60;;;5.70;99.90;;;;;;4975125;28;20052;-83
2022/10/20 05:11:13;;;;;;;17.45;8.57;;;5.80;99.90;;;;;;4980870;28;20037;-83
2022/10/20 05:13:39;;;;;;;13.60;7.45;;;5.70;99.90;;;;;;5009876;28;20578;-83
2022/10/20 05:16:05;;;;;;;13.95;7.43;;;5.80;99.90;;;;;;4999254;28;20118;-83
2022/10/20 05:18:33;;;;;;;12.65;7.38;;;5.80;99.90;;;;;;4972904;28;20035;-84
2022/10/20 05:20:58;;;;;;;12.93;7.05;;;5.80;99.90;;;;;;4995149;28;20343;-83
2022/10/20 05:23:24;;;;;;;11.48;6.82;;;5.80;99.90;;;;;;5008077;28;20034;-82
2022/10/20 05:25:50;;;;;;;10.57;6.65;;;5.80;99.90;;;;;;4968701;28;20109;-82
2022/10/20 05:28:16;;;;;;;8.57;6.85;;;5.80;99.90;;;;;;4991955;28;20042;-83
2022/10/20 05:30:42;;;;;;;9.10;6.88;;;5.80;99.90;;;;;;5005706;28;20034;-82
2022/10/20 05:33:08;;;;;;;11.15;7.35;;;5.80;99.90;;;;;;4988315;28;20649;-84
2022/10/20 05:35:34;;;;;;;7.75;6.72;;;5.70;99.90;;;;;;4986626;28;20052;-82
2022/10/20 05:38:00;;;;;;;11.35;7.47;;;5.80;99.90;;;;;;4969097;28;20034;-84
2022/10/20 05:40:26;;;;;;;11.85;6.95;;;5.70;99.90;;;;;;4984770;28;20518;-83
2022/10/20 05:42:51;;;;;;;10.40;7.07;;;5.80;99.90;;;;;;4969240;28;20042;-84
2022/10/20 05:45:17;;;;;;;10.40;7.25;;;5.80;99.90;;;;;;4988639;28;20030;-82
2022/10/20 05:47:43;;;;;;;10.88;7.20;;;5.80;99.90;;;;;;4985617;28;20034;-83
2022/10/20 05:50:09;;;;;;;11.98;7.45;;;5.80;99.90;;;;;;4969614;28;20621;-83
2022/10/20 05:52:35;;;;;;;10.70;7.45;;;5.80;99.90;;;;;;4976629;28;20227;-84
2022/10/20 05:55:03;;;;;;;10.90;7.28;;;5.80;99.90;;;;;;4984836;28;20023;-84
2022/10/20 05:57:28;;;;;;;9.52;7.13;;;5.80;99.90;;;;;;4973413;28;20121;-82
2022/10/20 05:59:54;;;;;;;10.48;7.03;;;5.70;99.90;;;;;;4971625;28;20117;-83
2022/10/20 06:02:21;;;;;;;13.48;7.78;;;5.80;99.90;;;;;;4955633;28;20508;-83
2022/10/20 06:04:46;;;;;;;16.63;7.20;;;5.80;99.90;;;;;;4987660;28;20367;-84
2022/10/20 06:07:12;;;;;;;10.15;7.43;;;5.90;99.90;;;;;;4970592;28;20041;-83
2022/10/20 06:09:39;;;;;;;12.77;8.02;;;5.90;99.90;;;;;;4970352;28;20491;-84
2022/10/20 06:12:06;;;;;;;9.57;6.43;;;5.90;99.90;;;;;;4987414;28;20517;-82
2022/10/20 06:14:32;;;;;;;11.95;8.07;;;5.90;99.90;;;;;;4974683;28;20075;-84
2022/10/20 06:16:58;;;;;;;9.23;7.25;;;6.00;99.90;;;;;;4981706;28;20026;-81
2022/10/20 06:19:24;;;;;;;11.18;6.88;;;6.00;99.90;;;;;;4997221;28;20092;-82
2022/10/20 06:21:50;;;;;;;9.50;7.63;;;6.00;99.90;;;;;;4974539;28;20117;-82
2022/10/20 06:24:17;;;;;;;13.35;7.65;;;6.00;99.90;;;;;;4976814;28;20034;-80
2022/10/20 06:26:44;;;;;;;9.25;7.53;;;6.00;99.90;;;;;;4973970;28;20616;-80
2022/10/20 06:29:12;;;;;;;11.10;8.05;;;6.00;99.90;;;;;;4968120;28;20115;-80
2022/10/20 06:31:40;;;;;;;11.55;7.68;;;6.00;99.90;;;;;;5008930;28;20058;-82
2022/10/20 06:34:09;;;;;;;15.95;6.93;;;6.10;99.90;;;;;;4982528;28;20105;-82
2022/10/20 06:36:37;;;;;;;10.95;6.65;;;6.10;99.90;;;;;;4986388;28;20034;-80
2022/10/20 06:39:05;;;;;;;10.73;7.30;;;6.00;99.90;;;;;;4988344;28;20094;-82
2022/10/20 06:41:32;;;;;;;9.05;6.63;;;6.10;99.90;;;;;;4970057;28;20031;-83
2022/10/20 06:43:58;;;;;;;9.55;7.18;;;6.20;99.90;;;;;;4984166;28;20589;-81
2022/10/20 06:46:29;;;;;;;16.42;8.75;;;6.20;99.90;;;;;;4989046;28;20499;-81
2022/10/20 06:48:58;;;;;;;11.23;7.15;;;6.30;99.90;;;;;;5008609;28;20046;-82
2022/10/20 06:51:23;;;;;;;15.10;7.80;;;6.30;99.90;;;;;;4988937;28;20043;-81
2022/10/20 06:53:51;;;;;;;10.00;6.57;;;6.50;99.90;;;;;;4958234;28;20034;-80
2022/10/20 06:56:22;;;;;;;10.85;7.43;;;6.60;99.90;;;;;;4971672;28;20038;-82
2022/10/20 06:58:50;;;;;;;9.95;6.25;;;6.70;99.90;;;;;;4973602;28;20034;-82
2022/10/20 07:01:26;;;;;;;9.20;6.55;;;6.90;99.90;;;;;;4969453;28;20545;-81
2022/10/20 07:03:55;;;;;;;10.75;6.65;;;7.00;99.90;;;;;;5008487;28;20109;-81
2022/10/20 07:06:30;;;;;;;9.75;6.32;;;7.20;99.90;;;;;;4977085;28;20053;-80
2022/10/20 07:08:56;;;;;;;9.10;6.40;;;7.50;99.90;;;;;;4995329;28;20113;-81
2022/10/20 07:11:27;;;;;;;8.02;6.50;;;7.40;99.90;;;;;;4986809;28;20050;-83
2022/10/20 07:13:54;;;;;;;9.38;6.18;;;7.70;99.90;;;;;;4993138;28;20069;-81
2022/10/20 07:16:22;;;;;;;6.43;5.53;;;8.00;99.90;;;;;;5010828;28;20117;-82
2022/10/20 07:18:48;;;;;;;10.38;5.80;;;8.00;99.90;;;;;;5008991;28;20026;-80
2022/10/20 07:21:17;;;;;;;8.45;6.13;;;8.10;99.90;;;;;;5002016;28;20041;-79
2022/10/20 07:23:44;;;;;;;7.80;5.95;;;8.10;99.90;;;;;;4975713;28;20034;-81
2022/10/20 07:26:14;;;;;;;11.25;6.53;;;8.30;99.90;;;;;;4997680;28;20121;-81
2022/10/20 07:28:43;;;;;;;6.70;5.35;;;8.40;99.90;;;;;;4992830;28;20069;-81
2022/10/20 07:31:17;;;;;;;8.85;5.75;;;8.40;99.90;;;;;;5010033;28;20085;-82
2022/10/20 07:33:44;;;;;;;9.93;5.65;;;8.60;99.90;;;;;;5007964;28;20056;-81
2022/10/20 07:36:19;;;;;;;8.93;5.35;;;8.70;99.90;;;;;;5005903;28;20034;-82
2022/10/20 07:38:46;;;;;;;9.13;5.93;;;8.70;99.90;;;;;;5015962;28;20026;-81
2022/10/20 07:41:12;;;;;;;8.95;5.93;;;8.90;99.90;;;;;;4996210;28;20065;-81
2022/10/20 07:43:38;;;;;;;9.43;5.63;;;9.00;99.90;;;;;;4991863;28;20045;-80
2022/10/20 07:46:05;;;;;;;7.80;5.03;;;8.90;99.90;;;;;;4990398;28;20486;-83
2022/10/20 07:48:32;;;;;;;6.13;5.13;;;8.90;99.90;;;;;;5004712;28;20050;-82
2022/10/20 07:51:29;;;;;;;6.43;5.28;;;8.80;99.90;;;;;;5010226;28;20030;-80
2022/10/20 07:53:58;;;;;;;8.55;5.60;;;8.80;99.90;;;;;;4972802;28;20031;-79
2022/10/20 07:56:26;;;;;;;7.45;4.90;;;8.60;99.90;;;;;;4990883;28;20121;-82
2022/10/20 07:58:53;;;;;;;13.63;6.13;;;8.60;99.90;;;;;;4999646;28;20023;-82
2022/10/20 08:01:18;;;;;;;7.47;5.28;;;8.70;99.90;;;;;;4995758;28;20081;-81
2022/10/20 08:03:44;;;;;;;10.32;5.82;;;8.80;99.90;;;;;;4992324;28;20042;-80
2022/10/20 08:06:10;;;;;;;7.40;5.75;;;8.80;99.90;;;;;;4994032;28;20117;-80
2022/10/20 08:08:36;;;;;;;7.72;5.20;;;8.80;99.90;;;;;;4993422;28;20038;-81
2022/10/20 08:11:02;;;;;;;11.95;6.05;;;8.80;99.90;;;;;;4995031;28;20030;-80
2022/10/20 08:13:29;;;;;;;8.68;5.55;;;8.90;99.90;;;;;;4975262;28;20046;-81
2022/10/20 08:15:55;;;;;;;6.80;5.50;;;8.80;99.90;;;;;;4994061;28;20026;-82
2022/10/20 08:18:21;;;;;;;6.07;5.07;;;8.80;99.90;;;;;;4974816;28;20030;-80
2022/10/20 08:20:46;;;;;;;8.48;5.10;;;8.80;99.90;;;;;;4996642;28;20026;-83
2022/10/20 08:23:13;;;;;;;8.13;6.25;;;8.80;99.90;;;;;;4961464;28;20065;-81
2022/10/20 08:25:39;;;;;;;7.63;5.60;;;8.80;99.90;;;;;;4978360;28;20485;-81
2022/10/20 08:28:06;;;;;;;6.80;5.82;;;8.80;99.90;;;;;;5003902;28;20034;-81
2022/10/20 08:30:32;;;;;;;6.70;5.72;;;8.80;99.90;;;;;;4986744;28;20133;-81
2022/10/20 08:32:58;;;;;;;7.55;5.65;;;8.90;99.90;;;;;;4985633;28;20097;-81
2022/10/20 08:35:24;;;;;;;8.63;6.03;;;8.90;99.90;;;;;;4989554;28;20114;-80
2022/10/20 08:37:53;;;;;;;8.68;4.95;;;8.90;99.90;;;;;;4992251;28;20030;-80
2022/10/20 08:40:26;;;;;;;7.18;4.97;;;9.00;99.90;;;;;;4974036;28;20019;-80
2022/10/20 08:42:52;;;;;;;11.45;6.15;;;9.10;99.90;;;;;;4991944;28;20033;-81
2022/10/20 08:45:21;;;;;;;7.63;5.50;;;9.20;99.90;;;;;;4971958;28;20049;-80
2022/10/20 08:47:50;;;;;;;7.40;5.53;;;9.20;99.90;;;;;;4991634;28;20037;-80
2022/10/20 08:50:17;;;;;;;7.88;5.57;;;9.20;99.90;;;;;;4995300;28;20034;-80
2022/10/20 08:52:45;;;;;;;8.93;5.88;;;9.30;99.90;;;;;;4988596;28;20076;-81
2022/10/20 08:55:28;;;;;;;5.78;5.15;;;9.40;99.90;;;;;;4975141;28;20058;-80
2022/10/20 08:58:06;;;;;;;9.55;5.43;;;9.50;99.90;;;;;;4975464;28;20030;-81
2022/10/20 09:00:36;;;;;;;7.30;4.97;;;9.60;99.90;;;;;;5011963;28;20029;-81
2022/10/20 09:03:12;;;;;;;5.82;4.82;;;9.70;99.90;;;;;;4991864;28;20031;-81
2022/10/20 09:05:41;;;;;;;6.22;4.72;;;9.80;99.90;;;;;;4995262;28;20041;-82
2022/10/20 09:08:07;;;;;;;7.28;5.63;;;9.70;99.90;;;;;;4994630;28;20038;-80
2022/10/20 09:10:41;;;;;;;6.40;4.60;;;9.80;99.90;;;;;;5002117;28;20038;-81
2022/10/20 09:13:29;;;;;;;6.72;4.85;;;9.80;99.90;;;;;;4998741;28;20030;-80
2022/10/20 09:16:02;;;;;;;6.55;5.15;;;9.90;99.90;;;;;;5007624;28;20048;-83
2022/10/20 09:18:29;;;;;;;5.55;4.85;;;10.00;99.90;;;;;;4960721;28;20038;-81
2022/10/20 09:21:03;;;;;;;6.05;4.63;;;10.10;99.90;;;;;;4978261;28;20041;-81
2022/10/20 09:23:45;;;;;;;6.70;4.88;;;10.10;99.90;;;;;;4962563;28;20038;-80
2022/10/20 09:26:33;;;;;;;5.85;4.43;;;10.30;99.90;;;;;;5008485;28;20692;-81
2022/10/20 09:29:08;;;;;;;8.98;4.60;;;10.40;99.90;;;;;;4990698;28;20451;-80
2022/10/20 09:31:40;;;;;;;5.97;4.63;;;10.50;99.90;;;;;;4995631;28;20057;-82
2022/10/20 09:34:30;;;;;;;5.40;4.40;;;10.70;99.90;;;;;;4991634;28;20053;-82
2022/10/20 09:37:03;;;;;;;7.78;5.20;;;10.80;99.90;;;;;;4979053;28;20042;-82
2022/10/20 09:39:38;;;;;;;6.03;4.88;;;10.90;99.90;;;;;;4974555;28;20069;-80
2022/10/20 09:42:10;;;;;;;5.53;4.90;;;11.00;99.90;;;;;;4991221;28;20176;-79
2022/10/20 09:44:47;;;;;;;7.35;4.88;;;11.00;99.90;;;;;;4989346;28;20286;-79
2022/10/20 09:47:14;;;;;;;4.65;4.25;;;11.00;99.90;;;;;;4992227;28;20070;-81
2022/10/20 09:49:42;;;;;;;8.32;4.82;;;11.10;99.90;;;;;;4992957;28;20030;-81
2022/10/20 09:52:20;;;;;;;5.85;4.47;;;11.20;99.90;;;;;;4988115;28;20480;-79
2022/10/20 09:54:48;;;;;;;6.05;3.88;;;11.30;99.90;;;;;;4964345;28;20077;-82
2022/10/20 09:57:19;;;;;;;5.18;4.20;;;11.40;99.90;;;;;;4957520;28;20037;-80
2022/10/20 09:59:50;;;;;;;6.32;4.30;;;11.40;99.90;;;;;;4996091;28;20049;-80
2022/10/20 10:02:22;;;;;;;5.90;4.25;;;11.30;99.90;;;;;;4993194;28;20053;-81
2022/10/20 10:04:50;;;;;;;6.38;4.00;;;11.40;99.90;;;;;;4987998;28;20117;-83
2022/10/20 10:07:25;;;;;;;6.03;4.65;;;11.50;99.90;;;;;;4990809;28;20443;-79
2022/10/20 10:10:04;;;;;;;5.35;4.15;;;11.60;99.90;;;;;;4961543;28;20019;-80
2022/10/20 10:12:31;;;;;;;5.65;4.25;;;11.70;99.90;;;;;;4980977;28;20030;-80
2022/10/20 10:15:04;;;;;;;6.32;3.95;;;11.70;99.90;;;;;;4976926;28;20105;-80
2022/10/20 10:17:34;;;;;;;4.70;4.13;;;11.70;99.90;;;;;;4983182;28;20495;-78
2022/10/20 10:20:04;;;;;;;5.70;3.67;;;11.70;99.90;;;;;;4977496;28;20681;-80
2022/10/20 10:22:30;;;;;;;7.78;3.90;;;11.70;99.90;;;;;;4991725;28;20038;-81
2022/10/20 10:24:58;;;;;;;5.47;4.10;;;11.70;99.90;;;;;;4985113;28;20045;-80
2022/10/20 10:27:29;;;;;;;4.82;4.38;;;11.70;99.90;;;;;;4958660;28;20069;-81
2022/10/20 10:30:17;;;;;;;3.97;3.60;;;11.80;99.90;;;;;;4985759;28;20031;-81
2022/10/20 10:32:45;;;;;;;6.65;4.10;;;11.90;99.90;;;;;;4987896;28;20026;-81
2022/10/20 10:35:35;;;;;;;4.55;3.92;;;12.00;99.90;;;;;;4972555;28;20038;-81
2022/10/20 10:38:01;;;;;;;5.28;3.72;;;12.10;99.90;;;;;;4980357;28;20448;-81
2022/10/20 10:40:58;;;;;;;3.83;3.40;;;12.20;99.90;;;;;;4984034;28;20511;-80
2022/10/20 10:43:29;;;;;;;3.85;3.55;;;12.20;99.90;;;;;;4985661;28;20042;-81
2022/10/20 10:45:59;;;;;;;6.75;3.60;;;12.10;99.90;;;;;;4966449;28;20026;-79
2022/10/20 10:48:45;;;;;;;5.13;3.47;;;12.20;99.90;;;;;;4988507;28;20034;-79
2022/10/20 10:51:50;;;;;;;6.22;3.53;;;12.20;99.90;;;;;;4992231;28;20567;-80
2022/10/20 10:54:25;;;;;;;4.47;3.67;;;12.20;99.90;;;;;;4956462;28;20115;-80
2022/10/20 10:56:58;;;;;;;3.63;3.30;;;12.10;99.90;;;;;;5002978;28;20032;-81
2022/10/20 10:59:38;;;;;;;4.30;3.42;;;12.10;99.90;;;;;;4960936;28;20142;-80
2022/10/20 11:02:16;;;;;;;4.72;3.63;;;12.20;99.90;;;;;;4962909;28;20031;-81
2022/10/20 11:05:06;;;;;;;4.85;3.58;;;12.20;99.90;;;;;;4969539;28;20050;-80
2022/10/20 11:07:52;;;;;;;5.28;3.58;;;12.30;99.90;;;;;;5000987;28;20028;-81
2022/10/20 11:10:36;;;;;;;;;;;12.40;99.90;;;;;;5004261;28;20058;-81
2022/10/20 11:13:26;;;;;;;3.30;2.83;;;12.50;99.90;;;;;;4981890;28;19913;-80
2022/10/20 11:16:27;;;;;;;4.00;3.17;;;12.60;99.90;;;;;;4967057;28;20066;-82
2022/10/20 11:19:11;;;;;;;6.00;3.58;;;12.60;99.90;;;;;;4983490;28;20026;-80
2022/10/20 11:21:43;;;;;;;5.22;3.00;;;12.70;99.90;;;;;;4984553;28;20654;-83
2022/10/20 11:24:44;;;;;;;4.70;3.47;;;12.80;99.90;;;;;;4988272;28;20100;-82
2022/10/20 11:27:17;;;;;;;5.22;3.40;;;12.90;99.90;;;;;;5004759;28;20084;-81
2022/10/20 11:29:51;;;;;;;4.57;3.67;;;12.90;99.90;;;;;;4974642;28;20050;-81
2022/10/20 11:32:41;;;;;;;4.00;3.28;;;12.90;99.90;;;;;;4989022;28;20038;-82
2022/10/20 11:35:23;;;;;;;5.15;3.75;;;12.90;99.90;;;;;;4964031;28;20034;-80
2022/10/20 11:38:19;;;;;;;4.18;3.05;;;13.00;99.90;;;;;;4989341;28;20038;-80
2022/10/20 11:41:03;;;;;;;6.32;2.85;;;13.00;99.90;;;;;;4985741;28;20412;-80
2022/10/20 11:43:41;;;;;;;6.90;3.00;;;13.10;99.90;;;;;;5012091;28;20042;-79
2022/10/20 11:46:14;;;;;;;3.10;2.80;;;13.10;99.90;;;;;;4994363;28;20030;-79
2022/10/20 11:48:53;;;;;;;4.97;3.40;;;13.10;99.90;;;;;;4989574;28;20174;-80
2022/10/20 11:51:42;;;;;;;4.05;3.10;;;13.10;99.90;;;;;;4971187;28;20430;-79
2022/10/20 11:54:12;;;;;;;4.35;3.35;;;13.20;99.90;;;;;;4987019;28;20030;-83
2022/10/20 11:56:49;;;;;;;3.42;2.63;;;13.20;99.90;;;;;;4993436;28;20080;-80
2022/10/20 11:59:27;;;;;;;4.63;2.92;;;13.20;99.90;;;;;;4992546;28;20073;-81
2022/10/20 12:02:07;;;;;;;4.10;2.90;;;13.30;99.90;;;;;;4990977;28;20054;-82
2022/10/20 12:05:00;;;;;;;3.40;2.28;;;13.30;99.90;;;;;;4995312;28;20483;-80
2022/10/20 12:08:07;;;;;;;4.32;2.78;;;13.40;99.90;;;;;;4990617;28;20026;-81
2022/10/20 12:10:51;;;;;;;3.85;2.50;;;13.50;99.90;;;;;;4972075;28;20072;-81
2022/10/20 12:13:34;;;;;;;4.70;2.80;;;13.60;99.90;;;;;;4991275;28;20442;-80
2022/10/20 12:16:00;;;;;;;3.70;2.45;;;13.70;99.90;;;;;;4979594;28;20542;-82
2022/10/20 12:18:35;;;;;;;5.50;2.03;;;13.70;99.90;;;;;;4970930;28;20046;-80
2022/10/20 12:21:02;;;;;;;3.92;2.40;;;13.80;99.90;;;;;;4986004;28;20128;-86
2022/10/20 12:23:44;;;;;;;3.58;1.90;;;13.80;99.90;;;;;;4997819;28;20045;-80
2022/10/20 12:26:28;;;;;;;5.03;2.17;;;13.90;99.90;;;;;;4996019;28;20041;-80
2022/10/20 12:28:59;;;;;;;3.80;2.13;;;13.80;99.90;;;;;;4997116;28;20117;-80
2022/10/20 12:32:03;;;;;;;3.70;1.95;;;13.80;99.90;;;;;;4988045;28;20045;-80
2022/10/20 12:34:39;;;;;;;3.00;2.00;;;13.80;99.90;;;;;;4963956;28;20026;-79
2022/10/20 12:37:18;;;;;;;3.08;2.17;;;13.80;99.90;;;;;;4985384;28;20443;-81
2022/10/20 12:39:45;;;;;;;2.63;1.77;;;13.80;99.90;;;;;;4975330;28;20529;-82
2022/10/20 12:42:26;;;;;;;3.28;2.33;;;13.80;99.90;;;;;;4993640;28;20022;-78
2022/10/20 12:44:53;;;;;;;2.50;2.30;;;13.80;99.90;;;;;;5000623;28;20042;-79
2022/10/20 12:47:22;;;;;;;3.30;2.58;;;13.70;99.90;;;;;;4992895;28;20030;-79
2022/10/20 12:50:26;;;;;;;3.63;2.60;;;13.70;99.90;;;;;;4982295;28;20069;-79
2022/10/20 12:52:53;;;;;;;3.97;2.20;;;13.70;99.90;;;;;;4997310;28;20105;-81
2022/10/20 12:55:24;;;;;;;5.53;2.40;;;13.70;99.90;;;;;;4952995;28;20539;-82
2022/10/20 12:58:09;;;;;;;4.32;2.92;;;13.70;99.90;;;;;;4966071;28;20035;-81
2022/10/20 13:00:35;;;;;;;4.47;2.60;;;13.60;99.90;;;;;;4967423;28;20026;-81
2022/10/20 13:03:01;;;;;;;3.40;2.30;;;13.70;99.90;;;;;;4987257;28;20423;-80
2022/10/20 13:05:40;;;;;;;3.28;2.35;;;13.70;99.90;;;;;;5000764;28;20126;-81
2022/10/20 13:08:35;;;;;;;2.80;2.45;;;13.80;99.90;;;;;;4985053;28;20046;-81
2022/10/20 13:11:32;;;;;;;2.70;2.45;;;13.90;99.90;;;;;;4949990;28;20047;-80